createdAt,value
2022-07-25T00:01:11.847Z,101044.72
2022-07-25T00:03:39.099Z,101038.69
2022-07-25T00:06:06.018Z,101038.69
2022-07-25T00:08:32.438Z,101034.56
2022-07-25T00:10:58.923Z,101032.38
2022-07-25T00:13:25.307Z,101018.16
2022-07-25T00:15:51.850Z,101031.41
2022-07-25T00:18:18.336Z,101028.91
2022-07-25T00:20:45.178Z,101022.84
2022-07-25T00:23:11.563Z,101026.41
2022-07-25T00:25:37.991Z,101018.44
2022-07-25T00:28:04.623Z,101017.06
2022-07-25T00:30:31.285Z,101009.38
2022-07-25T00:32:57.751Z,101009.97
2022-07-25T00:35:24.152Z,100998.16
2022-07-25T00:37:50.545Z,100995.44
2022-07-25T00:40:17.138Z,100978.97
2022-07-25T00:42:43.543Z,100972.91
2022-07-25T00:45:10.789Z,100980.91
2022-07-25T00:47:37.243Z,100982.31
2022-07-25T00:50:04.181Z,100979.28
2022-07-25T00:52:30.660Z,100973.25
2022-07-25T00:54:57.226Z,100972.72
2022-07-25T00:57:23.733Z,100971.06
2022-07-25T00:59:50.175Z,100967.47
2022-07-25T01:02:16.664Z,100961.72
2022-07-25T01:04:43.297Z,100960.88
2022-07-25T01:07:09.749Z,100949.31
2022-07-25T01:09:37.045Z,100946.88
2022-07-25T01:12:03.890Z,100944.94
2022-07-25T01:14:30.610Z,100939.16
2022-07-25T01:16:57.261Z,100940.25
2022-07-25T01:19:23.774Z,100933.94
2022-07-25T01:21:50.218Z,100931.44
2022-07-25T01:24:17.141Z,100931.44
2022-07-25T01:26:43.645Z,100932.28
2022-07-25T01:29:10.121Z,100936.13
2022-07-25T01:31:36.588Z,100928.69
2022-07-25T01:34:03.546Z,100940.00
2022-07-25T01:36:30.406Z,100930.38
2022-07-25T01:38:57.102Z,100930.97
2022-07-25T01:41:23.709Z,100932.06
2022-07-25T01:43:50.157Z,100927.97
2022-07-25T01:46:16.714Z,100914.47
2022-07-25T01:48:43.247Z,100911.19
2022-07-25T01:51:10.479Z,100906.25
2022-07-25T01:53:37.609Z,100899.13
2022-07-25T01:56:08.447Z,100892.53
2022-07-25T01:58:36.802Z,100889.78
2022-07-25T02:01:03.570Z,100888.69
2022-07-25T02:03:30.075Z,100881.53
2022-07-25T02:06:02.082Z,100880.72
2022-07-25T02:08:30.002Z,100872.72
2022-07-25T02:10:57.150Z,100871.94
2022-07-25T02:13:24.689Z,100872.50
2022-07-25T02:15:51.160Z,100864.56
2022-07-25T02:18:17.656Z,100862.06
2022-07-25T02:20:44.144Z,100856.03
2022-07-25T02:23:10.905Z,100850.81
2022-07-25T02:25:37.665Z,100842.84
2022-07-25T02:28:04.601Z,100834.91
2022-07-25T02:30:31.138Z,100832.97
2022-07-25T02:32:57.617Z,100839.59
2022-07-25T02:35:24.064Z,100835.16
2022-07-25T02:37:50.513Z,100831.91
2022-07-25T02:40:17.001Z,100840.16
2022-07-25T02:42:44.939Z,100829.16
2022-07-25T02:45:11.411Z,100826.66
2022-07-25T02:47:38.278Z,100824.22
2022-07-25T02:50:05.438Z,100817.34
2022-07-25T02:52:31.890Z,100820.09
2022-07-25T02:54:58.380Z,100825.06
2022-07-25T02:57:24.839Z,100831.69
2022-07-25T02:59:51.327Z,100820.94
2022-07-25T03:02:18.112Z,100819.88
2022-07-25T03:04:44.525Z,100808.09
2022-07-25T03:07:10.923Z,100815.78
2022-07-25T03:09:37.538Z,100817.69
2022-07-25T03:12:04.314Z,100809.16
2022-07-25T03:14:30.734Z,100804.81
2022-07-25T03:16:57.258Z,100808.69
2022-07-25T03:19:23.690Z,100805.66
2022-07-25T03:21:50.110Z,100807.59
2022-07-25T03:24:16.643Z,100802.91
2022-07-25T03:26:43.141Z,100802.91
2022-07-25T03:29:09.523Z,100796.88
2022-07-25T03:31:35.981Z,100808.69
2022-07-25T03:34:02.672Z,100792.47
2022-07-25T03:36:29.328Z,100804.59
2022-07-25T03:38:56.627Z,100797.41
2022-07-25T03:41:23.102Z,100790.59
2022-07-25T03:43:49.530Z,100798.00
2022-07-25T03:46:16.075Z,100806.50
2022-07-25T03:48:42.573Z,100808.72
2022-07-25T03:51:09.032Z,100803.50
2022-07-25T03:53:55.876Z,100800.75
2022-07-25T03:56:22.384Z,100800.75
2022-07-25T03:58:48.797Z,100799.94
2022-07-25T04:01:15.259Z,100813.66
2022-07-25T04:03:41.765Z,100812.84
2022-07-25T04:06:10.821Z,100819.97
2022-07-25T04:08:37.209Z,100815.34
2022-07-25T04:11:03.704Z,100816.97
2022-07-25T04:13:30.134Z,100814.78
2022-07-25T04:15:56.630Z,100803.50
2022-07-25T04:18:24.714Z,100794.19
2022-07-25T04:20:55.274Z,100805.97
2022-07-25T04:23:21.698Z,100809.84
2022-07-25T04:25:48.126Z,100809.28
2022-07-25T04:28:14.519Z,100800.22
2022-07-25T04:30:40.959Z,100801.59
2022-07-25T04:33:07.356Z,100803.81
2022-07-25T04:35:33.811Z,100799.16
2022-07-25T04:38:00.207Z,100792.28
2022-07-25T04:40:26.605Z,100787.88
2022-07-25T04:42:53.014Z,100788.72
2022-07-25T04:45:19.511Z,100781.56
2022-07-25T04:47:46.396Z,100780.75
2022-07-25T04:50:13.410Z,100778.56
2022-07-25T04:52:40.006Z,100778.03
2022-07-25T04:55:06.797Z,100779.94
2022-07-25T04:57:33.343Z,100781.88
2022-07-25T04:59:59.773Z,100776.97
2022-07-25T05:02:26.259Z,100770.63
2022-07-25T05:04:53.294Z,100783.53
2022-07-25T05:07:19.714Z,100782.44
2022-07-25T05:09:47.791Z,100787.66
2022-07-25T05:12:14.290Z,100777.47
2022-07-25T05:14:40.887Z,100775.56
2022-07-25T05:17:07.465Z,100774.22
2022-07-25T05:19:33.895Z,100782.44
2022-07-25T05:22:00.434Z,100789.84
2022-07-25T05:24:26.949Z,100785.16
2022-07-25T05:26:53.558Z,100775.53
2022-07-25T05:29:20.623Z,100778.84
2022-07-25T05:31:47.117Z,100781.84
2022-07-25T05:34:13.556Z,100786.78
2022-07-25T05:36:42.989Z,100788.94
2022-07-25T05:39:11.949Z,100789.50
2022-07-25T05:41:38.482Z,100790.03
2022-07-25T05:44:05.261Z,100793.28
2022-07-25T05:46:33.428Z,100785.28
2022-07-25T05:49:00.048Z,100775.63
2022-07-25T05:51:27.693Z,100780.06
2022-07-25T05:53:54.315Z,100780.06
2022-07-25T05:56:21.026Z,100788.84
2022-07-25T05:58:47.840Z,100782.25
2022-07-25T06:01:15.645Z,100793.78
2022-07-25T06:03:42.531Z,100791.91
2022-07-25T06:06:09.399Z,100785.84
2022-07-25T06:08:36.806Z,100774.28
2022-07-25T06:11:04.871Z,100775.13
2022-07-25T06:13:31.993Z,100783.09
2022-07-25T06:16:01.179Z,100788.28
2022-07-25T06:18:28.379Z,100794.34
2022-07-25T06:20:54.997Z,100790.78
2022-07-25T06:23:21.715Z,100798.16
2022-07-25T06:25:50.140Z,100804.22
2022-07-25T06:28:18.274Z,100802.84
2022-07-25T06:30:45.448Z,100788.84
2022-07-25T06:33:12.979Z,100777.84
2022-07-25T06:35:39.401Z,100782.53
2022-07-25T06:38:05.809Z,100774.06
2022-07-25T06:40:32.220Z,100773.84
2022-07-25T06:42:58.679Z,100797.78
2022-07-25T06:45:25.847Z,100796.13
2022-07-25T06:47:52.281Z,100799.97
2022-07-25T06:50:19.047Z,100795.59
2022-07-25T06:52:47.799Z,100791.75
2022-07-25T06:55:15.529Z,100787.59
2022-07-25T06:57:43.341Z,100798.34
2022-07-25T07:00:12.723Z,100793.66
2022-07-25T07:02:50.579Z,100804.69
2022-07-25T07:05:17.542Z,100798.91
2022-07-25T07:07:47.641Z,100795.09
2022-07-25T07:10:14.728Z,100804.97
2022-07-25T07:12:41.176Z,100797.56
2022-07-25T07:15:07.958Z,100798.94
2022-07-25T07:17:34.431Z,100803.31
2022-07-25T07:20:00.813Z,100801.72
2022-07-25T07:22:27.319Z,100800.31
2022-07-25T07:24:53.743Z,100798.41
2022-07-25T07:27:20.291Z,100796.75
2022-07-25T07:29:46.711Z,100807.75
2022-07-25T07:32:13.398Z,100809.38
2022-07-25T07:34:39.862Z,100805.00
2022-07-25T07:37:06.274Z,100806.09
2022-07-25T07:39:32.734Z,100804.19
2022-07-25T07:41:59.107Z,100798.97
2022-07-25T07:44:25.499Z,100817.94
2022-07-25T07:46:52.104Z,100801.72
2022-07-25T07:49:18.612Z,100786.34
2022-07-25T07:51:45.145Z,100805.00
2022-07-25T07:54:29.909Z,100809.13
2022-07-25T07:56:56.527Z,100808.84
2022-07-25T07:59:22.921Z,100807.47
2022-07-25T08:01:49.390Z,100808.31
2022-07-25T08:04:16.191Z,100799.53
2022-07-25T08:06:43.102Z,100806.13
2022-07-25T08:09:09.989Z,100799.81
2022-07-25T08:11:36.594Z,100796.22
2022-07-25T08:14:04.547Z,100780.03
2022-07-25T08:16:31.313Z,100784.97
2022-07-25T08:18:57.790Z,100788.25
2022-07-25T08:21:24.215Z,100795.97
2022-07-25T08:23:50.725Z,100797.34
2022-07-25T08:26:17.134Z,100789.34
2022-07-25T08:28:43.732Z,100794.59
2022-07-25T08:31:10.376Z,100784.44
2022-07-25T08:33:37.307Z,100783.31
2022-07-25T08:36:03.970Z,100787.16
2022-07-25T08:38:30.414Z,100776.72
2022-07-25T08:40:57.366Z,100789.38
2022-07-25T08:43:24.184Z,100795.13
2022-07-25T08:45:52.477Z,100804.16
2022-07-25T08:48:23.693Z,100811.06
2022-07-25T08:50:50.910Z,100814.88
2022-07-25T08:53:35.597Z,100821.19
2022-07-25T08:56:13.397Z,100821.72
2022-07-25T08:58:41.906Z,100824.22
2022-07-25T09:01:10.835Z,100820.34
2022-07-25T09:03:37.916Z,100810.41
2022-07-25T09:06:23.035Z,100808.44
2022-07-25T09:08:59.561Z,100817.19
2022-07-25T09:11:37.589Z,100804.78
2022-07-25T09:14:10.824Z,100822.34
2022-07-25T09:16:43.118Z,100829.19
2022-07-25T09:19:12.550Z,100823.44
2022-07-25T09:21:41.232Z,100819.06
2022-07-25T09:24:10.225Z,100817.44
2022-07-25T09:26:51.485Z,100824.06
2022-07-25T09:29:20.450Z,100828.22
2022-07-25T09:31:47.568Z,100825.25
2022-07-25T09:34:30.707Z,100830.44
2022-07-25T09:36:58.323Z,100849.41
2022-07-25T09:39:51.232Z,100841.97
2022-07-25T09:42:23.534Z,100851.63
2022-07-25T09:45:11.323Z,100866.50
2022-07-25T09:47:55.218Z,100861.56
2022-07-25T09:50:24.434Z,100861.84
2022-07-25T09:52:53.387Z,100867.88
2022-07-25T09:55:21.225Z,100875.00
2022-07-25T09:57:49.652Z,100868.44
2022-07-25T10:00:23.366Z,100860.47
2022-07-25T10:03:05.294Z,100865.13
2022-07-25T10:05:57.651Z,100873.31
2022-07-25T10:08:24.643Z,100873.06
2022-07-25T10:10:51.179Z,100884.59
2022-07-25T10:13:29.822Z,100874.69
2022-07-25T10:15:56.238Z,100866.16
2022-07-25T10:18:27.561Z,100868.88
2022-07-25T10:21:24.931Z,100882.34
2022-07-25T10:24:04.632Z,100885.66
2022-07-25T10:26:32.463Z,100890.59
2022-07-25T10:28:59.480Z,100891.44
2022-07-25T10:31:29.017Z,100885.41
2022-07-25T10:33:58.031Z,100891.19
2022-07-25T10:36:29.996Z,100898.34
2022-07-25T10:38:59.309Z,100900.81
2022-07-25T10:41:27.167Z,100904.38
2022-07-25T10:43:57.279Z,100903.81
2022-07-25T10:46:27.266Z,100912.06
2022-07-25T10:48:59.032Z,100900.25
2022-07-25T10:51:31.874Z,100898.03
2022-07-25T10:53:58.520Z,100912.63
2022-07-25T10:56:28.432Z,100912.88
2022-07-25T10:59:01.013Z,100917.28
2022-07-25T11:01:34.014Z,100912.91
2022-07-25T11:04:05.349Z,100918.66
2022-07-25T11:06:36.842Z,100903.53
2022-07-25T11:09:28.108Z,100910.41
2022-07-25T11:11:57.425Z,100916.13
2022-07-25T11:14:32.664Z,100917.25
2022-07-25T11:17:20.285Z,100911.50
2022-07-25T11:19:57.074Z,100923.31
2022-07-25T11:22:24.562Z,100920.28
2022-07-25T11:24:51.227Z,100927.13
2022-07-25T11:27:22.123Z,100916.41
2022-07-25T11:29:48.606Z,100924.63
2022-07-25T11:32:15.177Z,100921.63
2022-07-25T11:34:44.477Z,100932.03
2022-07-25T11:37:13.029Z,100920.50
2022-07-25T11:39:43.831Z,100921.31
2022-07-25T11:42:12.770Z,100927.91
2022-07-25T11:44:47.146Z,100918.59
2022-07-25T11:47:27.497Z,100928.47
2022-07-25T11:49:56.145Z,100931.78
2022-07-25T11:52:30.411Z,100930.97
2022-07-25T11:55:03.166Z,100930.41
2022-07-25T11:57:32.315Z,100935.09
2022-07-25T12:00:02.360Z,100932.38
2022-07-25T12:02:36.773Z,100938.41
2022-07-25T12:05:06.865Z,100943.91
2022-07-25T12:07:47.339Z,100941.19
2022-07-25T12:10:31.617Z,100948.84
2022-07-25T12:12:58.659Z,100965.88
2022-07-25T12:15:37.288Z,100956.28
2022-07-25T12:18:04.080Z,100970.28
2022-07-25T12:20:42.426Z,100961.16
2022-07-25T12:23:11.343Z,100946.34
2022-07-25T12:25:42.767Z,100956.53
2022-07-25T12:28:10.874Z,100958.47
2022-07-25T12:30:39.138Z,100949.97
2022-07-25T12:33:06.311Z,100947.75
2022-07-25T12:35:33.329Z,100942.53
2022-07-25T12:37:59.835Z,100944.72
2022-07-25T12:40:26.315Z,100946.38
2022-07-25T12:42:52.793Z,100945.53
2022-07-25T12:45:19.605Z,100951.03
2022-07-25T12:47:47.911Z,100949.06
2022-07-25T12:50:15.759Z,100958.44
2022-07-25T12:52:43.470Z,100954.88
2022-07-25T12:55:13.319Z,100964.78
2022-07-25T12:57:40.325Z,100964.75
2022-07-25T13:00:10.282Z,100953.19
2022-07-25T13:02:37.891Z,100960.91
2022-07-25T13:05:05.227Z,100946.31
2022-07-25T13:07:32.709Z,100952.66
2022-07-25T13:10:00.021Z,100952.94
2022-07-25T13:12:26.442Z,100952.69
2022-07-25T13:14:52.891Z,100956.53
2022-07-25T13:17:22.458Z,100958.72
2022-07-25T13:19:54.001Z,100952.41
2022-07-25T13:22:20.459Z,100965.84
2022-07-25T13:24:46.874Z,100968.31
2022-07-25T13:27:13.296Z,100958.19
2022-07-25T13:29:39.757Z,100963.13
2022-07-25T13:32:07.250Z,100971.38
2022-07-25T13:34:33.693Z,100977.13
2022-07-25T13:37:00.135Z,100962.53
2022-07-25T13:39:27.121Z,100964.19
2022-07-25T13:41:53.784Z,100966.97
2022-07-25T13:44:20.223Z,100974.63
2022-07-25T13:46:49.881Z,100962.81
2022-07-25T13:49:17.762Z,100971.88
2022-07-25T13:51:45.411Z,100973.53
2022-07-25T13:54:12.644Z,100965.28
2022-07-25T13:56:39.118Z,100968.03
2022-07-25T13:59:05.808Z,100963.38
2022-07-25T14:01:32.416Z,100974.09
2022-07-25T14:03:58.970Z,100971.06
2022-07-25T14:06:25.389Z,100974.38
2022-07-25T14:08:51.795Z,100987.84
2022-07-25T14:11:18.361Z,100992.25
2022-07-25T14:13:45.248Z,100987.56
2022-07-25T14:16:16.100Z,101002.66
2022-07-25T14:18:42.555Z,100994.13
2022-07-25T14:21:08.970Z,100986.44
2022-07-25T14:23:35.389Z,100988.09
2022-07-25T14:26:01.907Z,100996.09
2022-07-25T14:28:29.344Z,100985.34
2022-07-25T14:30:55.887Z,100987.84
2022-07-25T14:33:22.342Z,100996.31
2022-07-25T14:35:48.728Z,100999.06
2022-07-25T14:38:15.501Z,100990.00
2022-07-25T14:40:42.245Z,101001.59
2022-07-25T14:43:08.665Z,101006.78
2022-07-25T14:45:36.919Z,101010.34
2022-07-25T14:48:05.907Z,101001.84
2022-07-25T14:50:32.338Z,101003.22
2022-07-25T14:52:58.820Z,100999.06
2022-07-25T14:55:25.739Z,101007.91
2022-07-25T14:57:52.363Z,101006.78
2022-07-25T15:00:18.911Z,101004.03
2022-07-25T15:02:45.410Z,101003.78
2022-07-25T15:05:11.898Z,101006.22
2022-07-25T15:07:38.526Z,101001.28
2022-07-25T15:10:05.908Z,101006.22
2022-07-25T15:12:32.386Z,101008.97
2022-07-25T15:14:58.789Z,100991.97
2022-07-25T15:17:25.306Z,101003.47
2022-07-25T15:19:51.802Z,101004.56
2022-07-25T15:22:18.223Z,101005.41
2022-07-25T15:25:17.966Z,101000.44
2022-07-25T15:27:31.734Z,100997.94
2022-07-25T15:29:58.332Z,101012.25
2022-07-25T15:32:24.736Z,101009.78
2022-07-25T15:34:51.119Z,101014.19
2022-07-25T15:37:17.532Z,101008.44
2022-07-25T15:39:45.263Z,101013.66
2022-07-25T15:42:12.094Z,101013.66
2022-07-25T15:44:38.541Z,101023.56
2022-07-25T15:47:07.056Z,101023.00
2022-07-25T15:49:33.733Z,101031.78
2022-07-25T15:52:00.265Z,101031.78
2022-07-25T15:54:29.557Z,101026.84
2022-07-25T15:56:56.559Z,101037.28
2022-07-25T15:59:23.218Z,101030.13
2022-07-25T16:01:49.613Z,101031.22
2022-07-25T16:04:16.216Z,101032.59
2022-07-25T16:06:42.834Z,101027.13
2022-07-25T16:09:09.765Z,101023.00
2022-07-25T16:11:38.222Z,101030.69
2022-07-25T16:14:05.338Z,101029.06
2022-07-25T16:16:31.864Z,101033.72
2022-07-25T16:18:58.335Z,101033.72
2022-07-25T16:21:24.849Z,101040.31
2022-07-25T16:23:51.252Z,101036.19
2022-07-25T16:26:17.659Z,101033.44
2022-07-25T16:28:44.194Z,101042.78
2022-07-25T16:31:10.792Z,101032.63
2022-07-25T16:33:37.947Z,101035.63
2022-07-25T16:36:04.697Z,101035.34
2022-07-25T16:38:32.057Z,101040.59
2022-07-25T16:40:58.470Z,101046.09
2022-07-25T16:43:24.875Z,101061.19
2022-07-25T16:45:51.403Z,101048.28
2022-07-25T16:48:17.851Z,101047.72
2022-07-25T16:50:44.374Z,101050.13
2022-07-25T16:53:10.835Z,101054.22
2022-07-25T16:55:37.269Z,101046.53
2022-07-25T16:58:03.729Z,101058.03
2022-07-25T17:00:30.431Z,101058.84
2022-07-25T17:02:56.918Z,101062.66
2022-07-25T17:05:23.506Z,101057.97
2022-07-25T17:07:57.114Z,101064.81
2022-07-25T17:10:25.225Z,101068.66
2022-07-25T17:12:51.653Z,101067.28
2022-07-25T17:15:18.113Z,101071.66
2022-07-25T17:17:44.512Z,101070.56
2022-07-25T17:20:11.354Z,101071.63
2022-07-25T17:22:38.740Z,101065.88
2022-07-25T17:25:05.758Z,101072.19
2022-07-25T17:27:32.193Z,101066.19
2022-07-25T17:29:58.594Z,101079.59
2022-07-25T17:32:29.507Z,101072.19
2022-07-25T17:34:56.579Z,101076.56
2022-07-25T17:37:24.195Z,101075.47
2022-07-25T17:39:50.807Z,101080.09
2022-07-25T17:42:22.049Z,101073.75
2022-07-25T17:44:50.159Z,101085.31
2022-07-25T17:47:17.312Z,101085.31
2022-07-25T17:49:44.406Z,101071.88
2022-07-25T17:52:15.545Z,101069.44
2022-07-25T17:54:42.842Z,101077.59
2022-07-25T17:57:09.604Z,101088.31
2022-07-25T17:59:36.308Z,101078.19
2022-07-25T18:02:03.361Z,101080.63
2022-07-25T18:04:29.970Z,101084.72
2022-07-25T18:06:56.501Z,101081.94
2022-07-25T18:09:24.086Z,101087.97
2022-07-25T18:11:50.923Z,101087.69
2022-07-25T18:14:17.402Z,101097.28
2022-07-25T18:16:45.262Z,101090.72
2022-07-25T18:19:11.963Z,101096.50
2022-07-25T18:21:38.395Z,101094.03
2022-07-25T18:24:05.908Z,101088.81
2022-07-25T18:26:33.693Z,101094.03
2022-07-25T18:29:00.276Z,101092.91
2022-07-25T18:31:26.792Z,101101.66
2022-07-25T18:33:53.250Z,101097.28
2022-07-25T18:36:19.703Z,101097.31
2022-07-25T18:38:46.119Z,101100.88
2022-07-25T18:41:28.735Z,101101.69
2022-07-25T18:43:56.411Z,101109.16
2022-07-25T18:46:23.707Z,101098.34
2022-07-25T18:48:50.900Z,101106.00
2022-07-25T18:51:17.427Z,101102.75
2022-07-25T18:53:48.013Z,101119.97
2022-07-25T18:56:15.789Z,101108.13
2022-07-25T18:58:42.257Z,101115.50
2022-07-25T19:01:09.359Z,101116.84
2022-07-25T19:03:37.343Z,101122.63
2022-07-25T19:06:04.639Z,101111.69
2022-07-25T19:08:31.933Z,101120.50
2022-07-25T19:10:58.324Z,101115.28
2022-07-25T19:13:47.588Z,101129.78
2022-07-25T19:16:11.819Z,101129.50
2022-07-25T19:18:39.530Z,101130.88
2022-07-25T19:21:06.779Z,101125.66
2022-07-25T19:23:33.262Z,101128.66
2022-07-25T19:26:01.958Z,101132.19
2022-07-25T19:28:28.994Z,101134.03
2022-07-25T19:30:56.418Z,101129.06
2022-07-25T19:33:22.989Z,101128.25
2022-07-25T19:35:49.499Z,101133.97
2022-07-25T19:38:16.011Z,101128.50
2022-07-25T19:40:42.845Z,101133.97
2022-07-25T19:43:09.399Z,101135.38
2022-07-25T19:45:36.313Z,101148.28
2022-07-25T19:48:02.752Z,101151.03
2022-07-25T19:50:29.215Z,101155.38
2022-07-25T19:52:55.751Z,101159.69
2022-07-25T19:55:22.307Z,101150.31
2022-07-25T19:57:48.787Z,101164.25
2022-07-25T20:00:15.561Z,101151.63
2022-07-25T20:02:42.044Z,101163.19
2022-07-25T20:05:10.371Z,101154.97
2022-07-25T20:07:37.323Z,101162.09
2022-07-25T20:10:04.497Z,101168.34
2022-07-25T20:12:33.613Z,101161.47
2022-07-25T20:15:00.342Z,101164.66
2022-07-25T20:17:26.894Z,101163.56
2022-07-25T20:19:53.375Z,101165.81
2022-07-25T20:22:19.904Z,101165.28
2022-07-25T20:24:46.454Z,101168.50
2022-07-25T20:27:12.954Z,101160.53
2022-07-25T20:29:39.358Z,101160.78
2022-07-25T20:32:05.921Z,101160.84
2022-07-25T20:34:32.581Z,101159.47
2022-07-25T20:36:58.984Z,101170.41
2022-07-25T20:39:26.334Z,101167.38
2022-07-25T20:41:55.211Z,101159.69
2022-07-25T20:44:21.685Z,101166.28
2022-07-25T20:46:48.149Z,101164.66
2022-07-25T20:49:14.639Z,101169.88
2022-07-25T20:51:41.119Z,101177.53
2022-07-25T20:54:07.943Z,101173.72
2022-07-25T20:56:34.390Z,101180.28
2022-07-25T20:59:00.873Z,101180.78
2022-07-25T21:01:27.363Z,101171.16
2022-07-25T21:03:53.862Z,101171.44
2022-07-25T21:06:20.294Z,101176.91
2022-07-25T21:08:53.831Z,101167.78
2022-07-25T21:11:20.265Z,101176.53
2022-07-25T21:13:46.777Z,101178.44
2022-07-25T21:16:13.245Z,101170.22
2022-07-25T21:18:39.834Z,101177.34
2022-07-25T21:21:11.711Z,101168.56
2022-07-25T21:23:40.353Z,101174.59
2022-07-25T21:26:06.984Z,101183.41
2022-07-25T21:28:33.559Z,101185.81
2022-07-25T21:31:00.029Z,101179.75
2022-07-25T21:33:26.436Z,101187.97
2022-07-25T21:35:53.410Z,101183.31
2022-07-25T21:38:27.662Z,101182.00
2022-07-25T21:40:58.644Z,101188.03
2022-07-25T21:43:25.127Z,101192.44
2022-07-25T21:45:51.586Z,101186.38
2022-07-25T21:48:22.023Z,101194.94
2022-07-25T21:50:48.705Z,101190.88
2022-07-25T21:53:17.192Z,101192.38
2022-07-25T21:55:43.621Z,101189.63
2022-07-25T21:58:10.053Z,101189.13
2022-07-25T22:00:43.828Z,101191.13
2022-07-25T22:03:12.566Z,101192.53
2022-07-25T22:05:39.346Z,101199.91
2022-07-25T22:08:05.815Z,101198.31
2022-07-25T22:10:33.473Z,101195.31
2022-07-25T22:13:00.041Z,101189.31
2022-07-25T22:15:26.483Z,101190.41
2022-07-25T22:17:53.902Z,101192.06
2022-07-25T22:20:20.629Z,101199.44
2022-07-25T22:22:47.658Z,101203.28
2022-07-25T22:25:14.233Z,101201.59
2022-07-25T22:27:40.609Z,101196.13
2022-07-25T22:30:07.731Z,101195.31
2022-07-25T22:32:34.143Z,101201.88
2022-07-25T22:35:00.649Z,101200.78
2022-07-25T22:37:27.057Z,101194.16
2022-07-25T22:40:01.271Z,101196.84
2022-07-25T22:42:28.098Z,101192.69
2022-07-25T22:44:54.520Z,101200.66
2022-07-25T22:47:20.967Z,101195.19
2022-07-25T22:49:47.387Z,101198.78
2022-07-25T22:52:13.800Z,101204.25
2022-07-25T22:54:40.527Z,101211.84
2022-07-25T22:57:07.009Z,101211.59
2022-07-25T22:59:33.426Z,101210.53
2022-07-25T23:01:59.855Z,101202.34
2022-07-25T23:04:26.344Z,101200.34
2022-07-25T23:06:52.795Z,101197.00
2022-07-25T23:09:19.249Z,101197.28
2022-07-25T23:11:45.777Z,101200.53
2022-07-25T23:14:12.254Z,101200.53
2022-07-25T23:16:38.721Z,101201.63
2022-07-25T23:19:05.544Z,101200.78
2022-07-25T23:21:32.382Z,101207.38
2022-07-25T23:23:59.945Z,101212.53
2022-07-25T23:26:27.400Z,101211.69
2022-07-25T23:28:53.911Z,101218.81
2022-07-25T23:31:20.366Z,101210.84
2022-07-25T23:33:46.865Z,101211.09
2022-07-25T23:36:13.311Z,101218.00
2022-07-25T23:38:39.798Z,101213.56
2022-07-25T23:41:06.297Z,101215.25
2022-07-25T23:43:56.497Z,101213.56
2022-07-25T23:46:19.691Z,101212.75
2022-07-25T23:48:52.479Z,101222.06
2022-07-25T23:51:18.964Z,101217.66
2022-07-25T23:53:45.367Z,101216.03
2022-07-25T23:56:11.806Z,101225.28
2022-07-25T23:58:38.216Z,101222.81
